sensor_id;sensor_type;location;lat;lon;timestamp;P1;durP1;ratioP1;P2;durP2;ratioP2
31114;SDS011;17764;47.152;9.828;2023-02-28T00:00:04;5.53;;;4.70;;
31114;SDS011;17764;47.152;9.828;2023-02-28T00:02:35;5.17;;;4.50;;
31114;SDS011;17764;47.152;9.828;2023-02-28T00:05:01;5.87;;;4.73;;
31114;SDS011;17764;47.152;9.828;2023-02-28T00:07:28;5.27;;;4.27;;
31114;SDS011;17764;47.152;9.828;2023-02-28T00:09:54;5.10;;;4.60;;
31114;SDS011;17764;47.152;9.828;2023-02-28T00:12:20;7.93;;;5.10;;
31114;SDS011;17764;47.152;9.828;2023-02-28T00:14:46;5.73;;;4.93;;
31114;SDS011;17764;47.152;9.828;2023-02-28T00:17:12;6.10;;;4.83;;
31114;SDS011;17764;47.152;9.828;2023-02-28T00:19:38;6.33;;;4.90;;
31114;SDS011;17764;47.152;9.828;2023-02-28T00:22:04;7.03;;;5.27;;
31114;SDS011;17764;47.152;9.828;2023-02-28T00:24:30;5.90;;;5.30;;
31114;SDS011;17764;47.152;9.828;2023-02-28T00:26:56;7.47;;;5.20;;
31114;SDS011;17764;47.152;9.828;2023-02-28T00:29:22;5.43;;;4.93;;
31114;SDS011;17764;47.152;9.828;2023-02-28T00:31:48;6.83;;;4.93;;
31114;SDS011;17764;47.152;9.828;2023-02-28T00:34:14;5.90;;;4.80;;
31114;SDS011;17764;47.152;9.828;2023-02-28T00:36:40;5.30;;;4.70;;
31114;SDS011;17764;47.152;9.828;2023-02-28T00:39:10;5.60;;;4.83;;
31114;SDS011;17764;47.152;9.828;2023-02-28T00:41:36;6.40;;;5.13;;
31114;SDS011;17764;47.152;9.828;2023-02-28T00:44:02;5.60;;;4.97;;
31114;SDS011;17764;47.152;9.828;2023-02-28T00:46:28;5.77;;;5.07;;
31114;SDS011;17764;47.152;9.828;2023-02-28T00:48:54;6.83;;;5.47;;
31114;SDS011;17764;47.152;9.828;2023-02-28T00:51:20;6.50;;;5.90;;
31114;SDS011;17764;47.152;9.828;2023-02-28T00:53:46;7.33;;;6.03;;
31114;SDS011;17764;47.152;9.828;2023-02-28T00:56:12;6.27;;;5.50;;
31114;SDS011;17764;47.152;9.828;2023-02-28T00:58:38;5.57;;;4.97;;
31114;SDS011;17764;47.152;9.828;2023-02-28T01:01:05;6.33;;;5.60;;
31114;SDS011;17764;47.152;9.828;2023-02-28T01:03:31;6.37;;;5.73;;
31114;SDS011;17764;47.152;9.828;2023-02-28T01:05:57;6.23;;;5.63;;
31114;SDS011;17764;47.152;9.828;2023-02-28T01:08:23;7.77;;;6.37;;
31114;SDS011;17764;47.152;9.828;2023-02-28T01:10:51;8.20;;;6.33;;
31114;SDS011;17764;47.152;9.828;2023-02-28T01:13:17;7.40;;;6.20;;
31114;SDS011;17764;47.152;9.828;2023-02-28T01:15:45;6.47;;;5.87;;
31114;SDS011;17764;47.152;9.828;2023-02-28T01:18:12;5.90;;;5.30;;
31114;SDS011;17764;47.152;9.828;2023-02-28T01:20:38;5.70;;;5.10;;
31114;SDS011;17764;47.152;9.828;2023-02-28T01:23:04;6.17;;;4.70;;
31114;SDS011;17764;47.152;9.828;2023-02-28T01:25:30;5.80;;;4.53;;
31114;SDS011;17764;47.152;9.828;2023-02-28T01:27:56;6.70;;;5.47;;
31114;SDS011;17764;47.152;9.828;2023-02-28T01:30:22;6.00;;;4.90;;
31114;SDS011;17764;47.152;9.828;2023-02-28T01:32:48;6.73;;;5.30;;
31114;SDS011;17764;47.152;9.828;2023-02-28T01:35:16;5.80;;;5.20;;
31114;SDS011;17764;47.152;9.828;2023-02-28T01:37:42;7.40;;;5.43;;
31114;SDS011;17764;47.152;9.828;2023-02-28T01:40:08;5.40;;;4.90;;
31114;SDS011;17764;47.152;9.828;2023-02-28T01:42:34;7.33;;;5.67;;
31114;SDS011;17764;47.152;9.828;2023-02-28T01:45:02;6.17;;;5.03;;
31114;SDS011;17764;47.152;9.828;2023-02-28T01:47:47;6.30;;;5.20;;
31114;SDS011;17764;47.152;9.828;2023-02-28T01:50:24;6.23;;;5.30;;
31114;SDS011;17764;47.152;9.828;2023-02-28T01:52:54;7.87;;;5.63;;
31114;SDS011;17764;47.152;9.828;2023-02-28T01:55:20;6.77;;;5.40;;
31114;SDS011;17764;47.152;9.828;2023-02-28T01:57:50;5.57;;;5.00;;
31114;SDS011;17764;47.152;9.828;2023-02-28T02:00:20;6.80;;;5.40;;
31114;SDS011;17764;47.152;9.828;2023-02-28T02:02:48;5.73;;;5.13;;
31114;SDS011;17764;47.152;9.828;2023-02-28T02:05:16;6.57;;;5.07;;
31114;SDS011;17764;47.152;9.828;2023-02-28T02:07:42;6.53;;;4.90;;
31114;SDS011;17764;47.152;9.828;2023-02-28T02:10:27;5.40;;;4.90;;
31114;SDS011;17764;47.152;9.828;2023-02-28T02:17:51;6.90;;;5.40;;
31114;SDS011;17764;47.152;9.828;2023-02-28T02:35:40;5.67;;;4.63;;
31114;SDS011;17764;47.152;9.828;2023-02-28T02:40:58;6.77;;;5.27;;
31114;SDS011;17764;47.152;9.828;2023-02-28T02:43:32;7.23;;;4.83;;
31114;SDS011;17764;47.152;9.828;2023-02-28T02:48:54;7.43;;;5.10;;
31114;SDS011;17764;47.152;9.828;2023-02-28T02:51:21;6.20;;;4.50;;
31114;SDS011;17764;47.152;9.828;2023-02-28T02:53:52;6.07;;;4.80;;
31114;SDS011;17764;47.152;9.828;2023-02-28T02:56:21;5.00;;;4.50;;
31114;SDS011;17764;47.152;9.828;2023-02-28T02:58:49;7.23;;;4.83;;
31114;SDS011;17764;47.152;9.828;2023-02-28T03:01:18;5.40;;;4.83;;
31114;SDS011;17764;47.152;9.828;2023-02-28T03:03:55;6.23;;;5.30;;
31114;SDS011;17764;47.152;9.828;2023-02-28T03:06:24;5.70;;;5.20;;
31114;SDS011;17764;47.152;9.828;2023-02-28T03:08:50;6.33;;;5.40;;
31114;SDS011;17764;47.152;9.828;2023-02-28T03:11:16;7.37;;;6.10;;
31114;SDS011;17764;47.152;9.828;2023-02-28T03:16:33;9.13;;;7.27;;
31114;SDS011;17764;47.152;9.828;2023-02-28T03:19:03;8.67;;;7.77;;
31114;SDS011;17764;47.152;9.828;2023-02-28T03:24:08;9.07;;;8.07;;
31114;SDS011;17764;47.152;9.828;2023-02-28T03:26:38;8.57;;;7.10;;
31114;SDS011;17764;47.152;9.828;2023-02-28T03:29:06;9.53;;;8.00;;
31114;SDS011;17764;47.152;9.828;2023-02-28T03:31:44;9.77;;;8.37;;
31114;SDS011;17764;47.152;9.828;2023-02-28T03:34:33;10.10;;;7.80;;
31114;SDS011;17764;47.152;9.828;2023-02-28T03:37:04;8.93;;;8.03;;
31114;SDS011;17764;47.152;9.828;2023-02-28T03:39:38;8.93;;;7.63;;
31114;SDS011;17764;47.152;9.828;2023-02-28T03:42:08;10.23;;;8.80;;
31114;SDS011;17764;47.152;9.828;2023-02-28T03:44:36;9.20;;;8.10;;
31114;SDS011;17764;47.152;9.828;2023-02-28T03:47:05;9.87;;;8.53;;
31114;SDS011;17764;47.152;9.828;2023-02-28T03:49:39;9.53;;;8.53;;
31114;SDS011;17764;47.152;9.828;2023-02-28T03:52:18;8.97;;;7.90;;
31114;SDS011;17764;47.152;9.828;2023-02-28T03:54:47;9.43;;;8.17;;
31114;SDS011;17764;47.152;9.828;2023-02-28T03:57:23;10.10;;;8.63;;
31114;SDS011;17764;47.152;9.828;2023-02-28T03:59:55;10.03;;;8.50;;
31114;SDS011;17764;47.152;9.828;2023-02-28T04:02:22;9.97;;;8.17;;
31114;SDS011;17764;47.152;9.828;2023-02-28T04:04:48;8.67;;;7.77;;
31114;SDS011;17764;47.152;9.828;2023-02-28T04:07:18;10.13;;;9.03;;
31114;SDS011;17764;47.152;9.828;2023-02-28T04:09:44;9.17;;;8.10;;
31114;SDS011;17764;47.152;9.828;2023-02-28T04:12:10;9.37;;;8.37;;
31114;SDS011;17764;47.152;9.828;2023-02-28T04:14:36;9.77;;;8.40;;
31114;SDS011;17764;47.152;9.828;2023-02-28T04:17:02;9.67;;;8.53;;
31114;SDS011;17764;47.152;9.828;2023-02-28T04:19:28;9.70;;;8.73;;
31114;SDS011;17764;47.152;9.828;2023-02-28T04:21:54;9.90;;;7.97;;
31114;SDS011;17764;47.152;9.828;2023-02-28T04:24:21;9.57;;;8.57;;
31114;SDS011;17764;47.152;9.828;2023-02-28T04:26:52;9.30;;;8.37;;
31114;SDS011;17764;47.152;9.828;2023-02-28T04:29:28;9.40;;;8.40;;
31114;SDS011;17764;47.152;9.828;2023-02-28T04:31:57;9.97;;;8.77;;
31114;SDS011;17764;47.152;9.828;2023-02-28T04:34:24;9.43;;;8.43;;
31114;SDS011;17764;47.152;9.828;2023-02-28T04:36:51;9.17;;;8.27;;
31114;SDS011;17764;47.152;9.828;2023-02-28T04:39:19;9.13;;;8.23;;
31114;SDS011;17764;47.152;9.828;2023-02-28T04:41:45;9.80;;;8.40;;
31114;SDS011;17764;47.152;9.828;2023-02-28T04:44:11;10.43;;;8.83;;
31114;SDS011;17764;47.152;9.828;2023-02-28T04:46:37;10.20;;;8.97;;
31114;SDS011;17764;47.152;9.828;2023-02-28T04:49:03;9.37;;;8.03;;
31114;SDS011;17764;47.152;9.828;2023-02-28T04:51:30;8.73;;;7.83;;
31114;SDS011;17764;47.152;9.828;2023-02-28T04:53:56;10.00;;;8.87;;
31114;SDS011;17764;47.152;9.828;2023-02-28T04:56:22;9.60;;;8.63;;
31114;SDS011;17764;47.152;9.828;2023-02-28T04:58:48;10.40;;;8.87;;
31114;SDS011;17764;47.152;9.828;2023-02-28T05:03:49;9.80;;;8.80;;
31114;SDS011;17764;47.152;9.828;2023-02-28T05:06:15;9.20;;;8.30;;
31114;SDS011;17764;47.152;9.828;2023-02-28T05:08:42;9.07;;;8.10;;
31114;SDS011;17764;47.152;9.828;2023-02-28T05:11:24;8.07;;;7.27;;
31114;SDS011;17764;47.152;9.828;2023-02-28T05:13:50;9.23;;;7.67;;
31114;SDS011;17764;47.152;9.828;2023-02-28T05:16:16;8.77;;;7.13;;
31114;SDS011;17764;47.152;9.828;2023-02-28T05:18:43;8.73;;;6.80;;
31114;SDS011;17764;47.152;9.828;2023-02-28T05:21:48;8.63;;;7.17;;
31114;SDS011;17764;47.152;9.828;2023-02-28T05:24:03;7.97;;;6.73;;
31114;SDS011;17764;47.152;9.828;2023-02-28T05:26:31;9.17;;;7.17;;
31114;SDS011;17764;47.152;9.828;2023-02-28T05:29:00;10.13;;;7.83;;
31114;SDS011;17764;47.152;9.828;2023-02-28T05:31:26;8.83;;;7.17;;
31114;SDS011;17764;47.152;9.828;2023-02-28T05:33:52;9.03;;;6.97;;
31114;SDS011;17764;47.152;9.828;2023-02-28T05:36:18;7.60;;;6.80;;
31114;SDS011;17764;47.152;9.828;2023-02-28T05:38:47;8.53;;;6.47;;
31114;SDS011;17764;47.152;9.828;2023-02-28T05:41:14;9.37;;;6.90;;
31114;SDS011;17764;47.152;9.828;2023-02-28T05:43:40;8.60;;;7.17;;
31114;SDS011;17764;47.152;9.828;2023-02-28T05:46:07;8.80;;;7.90;;
31114;SDS011;17764;47.152;9.828;2023-02-28T05:48:34;10.10;;;8.33;;
31114;SDS011;17764;47.152;9.828;2023-02-28T05:51:00;9.93;;;8.40;;
31114;SDS011;17764;47.152;9.828;2023-02-28T05:53:27;10.37;;;9.23;;
31114;SDS011;17764;47.152;9.828;2023-02-28T05:55:53;11.40;;;9.07;;
31114;SDS011;17764;47.152;9.828;2023-02-28T05:58:20;10.43;;;9.37;;
31114;SDS011;17764;47.152;9.828;2023-02-28T06:00:46;10.03;;;8.83;;
31114;SDS011;17764;47.152;9.828;2023-02-28T06:03:12;10.77;;;8.97;;
31114;SDS011;17764;47.152;9.828;2023-02-28T06:05:38;10.50;;;9.10;;
31114;SDS011;17764;47.152;9.828;2023-02-28T06:08:04;9.97;;;8.70;;
31114;SDS011;17764;47.152;9.828;2023-02-28T06:10:32;10.10;;;9.10;;
31114;SDS011;17764;47.152;9.828;2023-02-28T06:13:01;10.17;;;8.63;;
31114;SDS011;17764;47.152;9.828;2023-02-28T06:15:27;10.50;;;9.40;;
31114;SDS011;17764;47.152;9.828;2023-02-28T06:17:53;10.00;;;8.70;;
31114;SDS011;17764;47.152;9.828;2023-02-28T06:20:21;9.40;;;8.43;;
31114;SDS011;17764;47.152;9.828;2023-02-28T06:22:47;9.07;;;8.10;;
31114;SDS011;17764;47.152;9.828;2023-02-28T06:25:15;11.13;;;8.77;;
31114;SDS011;17764;47.152;9.828;2023-02-28T06:27:41;10.77;;;9.23;;
31114;SDS011;17764;47.152;9.828;2023-02-28T06:30:08;12.10;;;9.57;;
31114;SDS011;17764;47.152;9.828;2023-02-28T06:32:34;10.07;;;8.80;;
31114;SDS011;17764;47.152;9.828;2023-02-28T06:35:01;10.77;;;8.27;;
31114;SDS011;17764;47.152;9.828;2023-02-28T06:37:27;10.67;;;8.10;;
31114;SDS011;17764;47.152;9.828;2023-02-28T06:39:56;10.77;;;7.97;;
31114;SDS011;17764;47.152;9.828;2023-02-28T06:42:22;9.43;;;7.30;;
31114;SDS011;17764;47.152;9.828;2023-02-28T06:44:53;9.90;;;7.10;;
31114;SDS011;17764;47.152;9.828;2023-02-28T06:47:20;8.57;;;7.23;;
31114;SDS011;17764;47.152;9.828;2023-02-28T06:49:46;9.70;;;8.00;;
31114;SDS011;17764;47.152;9.828;2023-02-28T06:52:12;8.87;;;7.57;;
31114;SDS011;17764;47.152;9.828;2023-02-28T06:54:38;11.87;;;8.03;;
31114;SDS011;17764;47.152;9.828;2023-02-28T06:57:04;9.93;;;7.63;;
31114;SDS011;17764;47.152;9.828;2023-02-28T06:59:30;8.27;;;6.60;;
31114;SDS011;17764;47.152;9.828;2023-02-28T07:01:56;10.07;;;7.13;;
31114;SDS011;17764;47.152;9.828;2023-02-28T07:04:22;7.97;;;6.97;;
31114;SDS011;17764;47.152;9.828;2023-02-28T07:06:48;7.53;;;6.67;;
31114;SDS011;17764;47.152;9.828;2023-02-28T07:09:14;10.50;;;6.97;;
31114;SDS011;17764;47.152;9.828;2023-02-28T07:11:40;9.43;;;7.50;;
31114;SDS011;17764;47.152;9.828;2023-02-28T07:14:07;8.43;;;7.27;;
31114;SDS011;17764;47.152;9.828;2023-02-28T07:16:34;10.83;;;8.57;;
31114;SDS011;17764;47.152;9.828;2023-02-28T07:19:00;8.77;;;7.57;;
31114;SDS011;17764;47.152;9.828;2023-02-28T07:21:26;9.17;;;7.60;;
31114;SDS011;17764;47.152;9.828;2023-02-28T07:23:52;10.57;;;7.63;;
31114;SDS011;17764;47.152;9.828;2023-02-28T07:26:18;11.13;;;8.30;;
31114;SDS011;17764;47.152;9.828;2023-02-28T07:28:45;11.20;;;8.00;;
31114;SDS011;17764;47.152;9.828;2023-02-28T07:31:11;10.80;;;8.50;;
31114;SDS011;17764;47.152;9.828;2023-02-28T07:33:39;9.80;;;8.47;;
31114;SDS011;17764;47.152;9.828;2023-02-28T07:36:09;11.47;;;8.40;;
31114;SDS011;17764;47.152;9.828;2023-02-28T07:38:40;11.40;;;8.10;;
31114;SDS011;17764;47.152;9.828;2023-02-28T07:41:08;9.73;;;8.67;;
31114;SDS011;17764;47.152;9.828;2023-02-28T07:43:35;10.00;;;8.60;;
31114;SDS011;17764;47.152;9.828;2023-02-28T07:46:02;10.97;;;8.63;;
31114;SDS011;17764;47.152;9.828;2023-02-28T07:48:28;9.67;;;8.67;;
31114;SDS011;17764;47.152;9.828;2023-02-28T07:50:57;12.27;;;8.47;;
31114;SDS011;17764;47.152;9.828;2023-02-28T07:53:24;10.30;;;9.03;;
31114;SDS011;17764;47.152;9.828;2023-02-28T07:55:50;8.80;;;7.90;;
31114;SDS011;17764;47.152;9.828;2023-02-28T07:58:16;10.70;;;8.37;;
31114;SDS011;17764;47.152;9.828;2023-02-28T08:00:42;10.00;;;8.90;;
31114;SDS011;17764;47.152;9.828;2023-02-28T08:03:10;10.17;;;8.20;;
31114;SDS011;17764;47.152;9.828;2023-02-28T08:05:40;13.33;;;9.80;;
31114;SDS011;17764;47.152;9.828;2023-02-28T08:08:07;11.63;;;9.30;;
31114;SDS011;17764;47.152;9.828;2023-02-28T08:10:33;10.53;;;9.13;;
31114;SDS011;17764;47.152;9.828;2023-02-28T08:12:59;10.77;;;8.87;;
31114;SDS011;17764;47.152;9.828;2023-02-28T08:15:25;11.73;;;9.47;;
31114;SDS011;17764;47.152;9.828;2023-02-28T08:17:51;10.00;;;9.00;;
31114;SDS011;17764;47.152;9.828;2023-02-28T08:20:17;11.57;;;9.43;;
31114;SDS011;17764;47.152;9.828;2023-02-28T08:22:44;11.97;;;8.80;;
31114;SDS011;17764;47.152;9.828;2023-02-28T08:25:10;10.73;;;9.03;;
31114;SDS011;17764;47.152;9.828;2023-02-28T08:27:35;13.03;;;9.43;;
31114;SDS011;17764;47.152;9.828;2023-02-28T08:30:02;11.47;;;8.83;;
31114;SDS011;17764;47.152;9.828;2023-02-28T08:32:28;10.80;;;9.03;;
31114;SDS011;17764;47.152;9.828;2023-02-28T08:34:54;10.07;;;8.70;;
31114;SDS011;17764;47.152;9.828;2023-02-28T08:37:20;10.17;;;8.50;;
31114;SDS011;17764;47.152;9.828;2023-02-28T08:39:46;10.37;;;8.77;;
31114;SDS011;17764;47.152;9.828;2023-02-28T08:42:14;9.93;;;8.93;;
31114;SDS011;17764;47.152;9.828;2023-02-28T08:44:41;10.00;;;8.83;;
31114;SDS011;17764;47.152;9.828;2023-02-28T08:47:07;11.83;;;9.60;;
31114;SDS011;17764;47.152;9.828;2023-02-28T08:49:33;11.37;;;9.50;;
31114;SDS011;17764;47.152;9.828;2023-02-28T08:51:59;10.93;;;9.70;;
31114;SDS011;17764;47.152;9.828;2023-02-28T08:54:25;11.30;;;10.03;;
31114;SDS011;17764;47.152;9.828;2023-02-28T08:56:53;12.83;;;10.73;;
31114;SDS011;17764;47.152;9.828;2023-02-28T08:59:19;12.70;;;10.17;;
31114;SDS011;17764;47.152;9.828;2023-02-28T09:01:45;11.80;;;10.20;;
31114;SDS011;17764;47.152;9.828;2023-02-28T09:04:11;12.57;;;9.97;;
31114;SDS011;17764;47.152;9.828;2023-02-28T09:06:38;11.40;;;10.13;;
31114;SDS011;17764;47.152;9.828;2023-02-28T09:09:06;10.77;;;9.67;;
31114;SDS011;17764;47.152;9.828;2023-02-28T09:11:32;11.07;;;9.60;;
31114;SDS011;17764;47.152;9.828;2023-02-28T09:13:58;11.63;;;10.40;;
31114;SDS011;17764;47.152;9.828;2023-02-28T09:16:25;11.57;;;9.67;;
31114;SDS011;17764;47.152;9.828;2023-02-28T09:18:52;15.00;;;10.83;;
31114;SDS011;17764;47.152;9.828;2023-02-28T09:21:20;11.50;;;9.90;;
31114;SDS011;17764;47.152;9.828;2023-02-28T09:23:46;11.57;;;9.63;;
31114;SDS011;17764;47.152;9.828;2023-02-28T09:26:13;12.23;;;10.30;;
31114;SDS011;17764;47.152;9.828;2023-02-28T09:28:39;12.80;;;10.77;;
31114;SDS011;17764;47.152;9.828;2023-02-28T09:31:05;11.50;;;10.30;;
31114;SDS011;17764;47.152;9.828;2023-02-28T09:33:32;11.60;;;9.97;;
31114;SDS011;17764;47.152;9.828;2023-02-28T09:36:00;11.67;;;9.77;;
31114;SDS011;17764;47.152;9.828;2023-02-28T09:38:26;11.40;;;9.53;;
31114;SDS011;17764;47.152;9.828;2023-02-28T09:40:54;11.10;;;9.67;;
31114;SDS011;17764;47.152;9.828;2023-02-28T09:43:22;11.67;;;9.50;;
31114;SDS011;17764;47.152;9.828;2023-02-28T09:45:51;11.00;;;9.30;;
31114;SDS011;17764;47.152;9.828;2023-02-28T09:48:24;10.20;;;8.77;;
31114;SDS011;17764;47.152;9.828;2023-02-28T09:50:51;10.17;;;9.07;;
31114;SDS011;17764;47.152;9.828;2023-02-28T09:56:07;11.97;;;10.37;;
31114;SDS011;17764;47.152;9.828;2023-02-28T10:03:53;10.40;;;9.30;;
31114;SDS011;17764;47.152;9.828;2023-02-28T10:06:22;11.50;;;9.13;;
31114;SDS011;17764;47.152;9.828;2023-02-28T10:11:17;11.10;;;9.83;;
31114;SDS011;17764;47.152;9.828;2023-02-28T10:13:48;10.97;;;8.80;;
31114;SDS011;17764;47.152;9.828;2023-02-28T10:16:59;11.60;;;10.17;;
31114;SDS011;17764;47.152;9.828;2023-02-28T10:21:55;11.37;;;9.97;;
31114;SDS011;17764;47.152;9.828;2023-02-28T10:24:30;13.57;;;10.47;;
31114;SDS011;17764;47.152;9.828;2023-02-28T10:27:03;11.93;;;9.63;;
31114;SDS011;17764;47.152;9.828;2023-02-28T10:29:32;10.37;;;9.07;;
31114;SDS011;17764;47.152;9.828;2023-02-28T10:31:58;10.53;;;9.40;;
31114;SDS011;17764;47.152;9.828;2023-02-28T10:34:26;10.77;;;9.50;;
31114;SDS011;17764;47.152;9.828;2023-02-28T10:36:52;11.23;;;9.30;;
31114;SDS011;17764;47.152;9.828;2023-02-28T10:42:04;10.73;;;9.47;;
31114;SDS011;17764;47.152;9.828;2023-02-28T10:44:31;10.73;;;9.10;;
31114;SDS011;17764;47.152;9.828;2023-02-28T10:46:57;12.43;;;9.20;;
31114;SDS011;17764;47.152;9.828;2023-02-28T10:49:25;11.40;;;9.93;;
31114;SDS011;17764;47.152;9.828;2023-02-28T10:51:56;10.90;;;9.17;;
31114;SDS011;17764;47.152;9.828;2023-02-28T10:54:24;10.90;;;9.73;;
31114;SDS011;17764;47.152;9.828;2023-02-28T10:57:08;11.97;;;8.97;;
31114;SDS011;17764;47.152;9.828;2023-02-28T10:59:34;11.80;;;9.67;;
31114;SDS011;17764;47.152;9.828;2023-02-28T11:02:01;12.53;;;10.23;;
31114;SDS011;17764;47.152;9.828;2023-02-28T11:07:22;12.30;;;10.23;;
31114;SDS011;17764;47.152;9.828;2023-02-28T11:09:51;12.20;;;9.53;;
31114;SDS011;17764;47.152;9.828;2023-02-28T11:12:39;11.87;;;9.97;;
31114;SDS011;17764;47.152;9.828;2023-02-28T11:17:32;9.73;;;8.73;;
31114;SDS011;17764;47.152;9.828;2023-02-28T11:20:02;11.00;;;9.20;;
31114;SDS011;17764;47.152;9.828;2023-02-28T11:22:30;11.30;;;9.90;;
31114;SDS011;17764;47.152;9.828;2023-02-28T11:25:02;12.53;;;10.50;;
31114;SDS011;17764;47.152;9.828;2023-02-28T11:29:59;13.40;;;10.67;;
31114;SDS011;17764;47.152;9.828;2023-02-28T11:32:29;14.13;;;10.87;;
31114;SDS011;17764;47.152;9.828;2023-02-28T11:35:03;12.73;;;11.00;;
31114;SDS011;17764;47.152;9.828;2023-02-28T11:37:29;18.20;;;9.70;;
31114;SDS011;17764;47.152;9.828;2023-02-28T11:39:56;10.27;;;9.27;;
31114;SDS011;17764;47.152;9.828;2023-02-28T11:56:00;10.77;;;8.90;;
31114;SDS011;17764;47.152;9.828;2023-02-28T12:07:02;9.13;;;8.17;;
31114;SDS011;17764;47.152;9.828;2023-02-28T12:09:37;11.10;;;8.73;;
31114;SDS011;17764;47.152;9.828;2023-02-28T12:14:46;10.80;;;9.70;;
31114;SDS011;17764;47.152;9.828;2023-02-28T12:20:27;11.30;;;9.47;;
31114;SDS011;17764;47.152;9.828;2023-02-28T12:23:19;11.20;;;9.70;;
31114;SDS011;17764;47.152;9.828;2023-02-28T12:28:48;10.67;;;8.63;;
31114;SDS011;17764;47.152;9.828;2023-02-28T12:33:47;9.53;;;8.57;;
31114;SDS011;17764;47.152;9.828;2023-02-28T12:36:14;9.97;;;8.90;;
31114;SDS011;17764;47.152;9.828;2023-02-28T12:38:45;11.03;;;9.00;;
31114;SDS011;17764;47.152;9.828;2023-02-28T12:41:13;10.33;;;9.20;;
31114;SDS011;17764;47.152;9.828;2023-02-28T12:43:45;9.83;;;8.83;;
31114;SDS011;17764;47.152;9.828;2023-02-28T12:46:17;10.47;;;9.10;;
31114;SDS011;17764;47.152;9.828;2023-02-28T12:48:50;10.70;;;8.90;;
31114;SDS011;17764;47.152;9.828;2023-02-28T12:51:18;10.13;;;9.03;;
31114;SDS011;17764;47.152;9.828;2023-02-28T12:58:41;10.57;;;8.87;;
31114;SDS011;17764;47.152;9.828;2023-02-28T13:04:39;9.43;;;8.47;;
31114;SDS011;17764;47.152;9.828;2023-02-28T13:06:55;9.70;;;8.70;;
31114;SDS011;17764;47.152;9.828;2023-02-28T13:09:25;12.43;;;9.17;;
31114;SDS011;17764;47.152;9.828;2023-02-28T13:11:54;10.53;;;8.87;;
31114;SDS011;17764;47.152;9.828;2023-02-28T13:17:13;10.90;;;8.83;;
31114;SDS011;17764;47.152;9.828;2023-02-28T13:19:38;9.60;;;8.60;;
31114;SDS011;17764;47.152;9.828;2023-02-28T13:22:04;10.53;;;9.13;;
31114;SDS011;17764;47.152;9.828;2023-02-28T13:34:33;11.30;;;9.33;;
31114;SDS011;17764;47.152;9.828;2023-02-28T13:39:48;9.93;;;8.93;;
31114;SDS011;17764;47.152;9.828;2023-02-28T13:47:30;10.13;;;9.13;;
31114;SDS011;17764;47.152;9.828;2023-02-28T14:06:07;10.87;;;9.77;;
31114;SDS011;17764;47.152;9.828;2023-02-28T14:08:33;11.00;;;9.90;;
31114;SDS011;17764;47.152;9.828;2023-02-28T14:11:04;11.40;;;9.33;;
31114;SDS011;17764;47.152;9.828;2023-02-28T14:13:43;13.47;;;10.07;;
31114;SDS011;17764;47.152;9.828;2023-02-28T14:16:16;10.80;;;9.23;;
31114;SDS011;17764;47.152;9.828;2023-02-28T14:18:48;10.47;;;9.37;;
31114;SDS011;17764;47.152;9.828;2023-02-28T14:31:55;10.93;;;9.33;;
31114;SDS011;17764;47.152;9.828;2023-02-28T14:36:49;9.70;;;8.70;;
31114;SDS011;17764;47.152;9.828;2023-02-28T14:39:19;10.03;;;9.00;;
31114;SDS011;17764;47.152;9.828;2023-02-28T14:41:45;10.63;;;9.33;;
31114;SDS011;17764;47.152;9.828;2023-02-28T14:46:41;15.70;;;9.90;;
31114;SDS011;17764;47.152;9.828;2023-02-28T14:49:23;10.07;;;9.07;;
31114;SDS011;17764;47.152;9.828;2023-02-28T14:51:50;10.40;;;8.90;;
31114;SDS011;17764;47.152;9.828;2023-02-28T14:54:38;9.70;;;8.77;;
31114;SDS011;17764;47.152;9.828;2023-02-28T14:57:04;10.23;;;8.63;;
31114;SDS011;17764;47.152;9.828;2023-02-28T14:59:32;9.60;;;8.57;;
31114;SDS011;17764;47.152;9.828;2023-02-28T15:04:56;11.60;;;9.53;;
31114;SDS011;17764;47.152;9.828;2023-02-28T15:07:24;9.57;;;8.43;;
31114;SDS011;17764;47.152;9.828;2023-02-28T15:12:37;12.43;;;8.63;;
31114;SDS011;17764;47.152;9.828;2023-02-28T15:15:05;10.57;;;8.57;;
31114;SDS011;17764;47.152;9.828;2023-02-28T15:17:32;9.70;;;8.70;;
31114;SDS011;17764;47.152;9.828;2023-02-28T15:19:59;12.83;;;9.57;;
31114;SDS011;17764;47.152;9.828;2023-02-28T15:22:31;9.70;;;8.70;;
31114;SDS011;17764;47.152;9.828;2023-02-28T15:24:59;12.83;;;8.80;;
31114;SDS011;17764;47.152;9.828;2023-02-28T15:27:28;9.97;;;8.97;;
31114;SDS011;17764;47.152;9.828;2023-02-28T15:29:58;9.93;;;8.93;;
31114;SDS011;17764;47.152;9.828;2023-02-28T15:32:31;9.77;;;8.77;;
31114;SDS011;17764;47.152;9.828;2023-02-28T15:34:58;11.50;;;9.37;;
31114;SDS011;17764;47.152;9.828;2023-02-28T15:37:26;9.80;;;8.60;;
31114;SDS011;17764;47.152;9.828;2023-02-28T15:40:32;10.83;;;9.00;;
31114;SDS011;17764;47.152;9.828;2023-02-28T15:43:03;11.17;;;8.60;;
31114;SDS011;17764;47.152;9.828;2023-02-28T15:48:02;12.17;;;9.67;;
31114;SDS011;17764;47.152;9.828;2023-02-28T15:50:28;12.07;;;10.27;;
31114;SDS011;17764;47.152;9.828;2023-02-28T15:52:55;12.77;;;10.23;;
31114;SDS011;17764;47.152;9.828;2023-02-28T15:55:22;11.30;;;8.93;;
31114;SDS011;17764;47.152;9.828;2023-02-28T15:57:52;9.90;;;8.77;;
31114;SDS011;17764;47.152;9.828;2023-02-28T16:00:21;9.40;;;8.50;;
31114;SDS011;17764;47.152;9.828;2023-02-28T16:02:47;10.67;;;9.43;;
31114;SDS011;17764;47.152;9.828;2023-02-28T16:07:52;10.00;;;8.77;;
31114;SDS011;17764;47.152;9.828;2023-02-28T16:10:21;10.07;;;8.90;;
31114;SDS011;17764;47.152;9.828;2023-02-28T16:12:50;10.83;;;9.53;;
31114;SDS011;17764;47.152;9.828;2023-02-28T16:15:20;10.13;;;8.23;;
31114;SDS011;17764;47.152;9.828;2023-02-28T16:17:51;10.93;;;9.07;;
31114;SDS011;17764;47.152;9.828;2023-02-28T16:20:19;9.70;;;8.67;;
31114;SDS011;17764;47.152;9.828;2023-02-28T16:22:49;9.67;;;8.67;;
31114;SDS011;17764;47.152;9.828;2023-02-28T16:25:16;10.67;;;9.43;;
31114;SDS011;17764;47.152;9.828;2023-02-28T16:27:44;12.67;;;9.73;;
31114;SDS011;17764;47.152;9.828;2023-02-28T16:30:23;10.90;;;9.70;;
31114;SDS011;17764;47.152;9.828;2023-02-28T16:32:50;12.53;;;9.37;;
31114;SDS011;17764;47.152;9.828;2023-02-28T16:35:17;12.93;;;10.00;;
31114;SDS011;17764;47.152;9.828;2023-02-28T16:37:43;11.43;;;9.47;;
31114;SDS011;17764;47.152;9.828;2023-02-28T16:40:13;10.73;;;9.40;;
31114;SDS011;17764;47.152;9.828;2023-02-28T16:42:39;13.20;;;10.93;;
31114;SDS011;17764;47.152;9.828;2023-02-28T16:45:06;12.20;;;10.03;;
31114;SDS011;17764;47.152;9.828;2023-02-28T16:47:32;12.07;;;10.47;;
31114;SDS011;17764;47.152;9.828;2023-02-28T16:49:58;12.13;;;9.90;;
31114;SDS011;17764;47.152;9.828;2023-02-28T16:52:24;11.33;;;9.70;;
31114;SDS011;17764;47.152;9.828;2023-02-28T16:54:50;11.80;;;10.07;;
31114;SDS011;17764;47.152;9.828;2023-02-28T16:57:22;12.33;;;10.10;;
31114;SDS011;17764;47.152;9.828;2023-02-28T16:59:51;14.07;;;10.80;;
31114;SDS011;17764;47.152;9.828;2023-02-28T17:02:17;14.87;;;10.20;;
31114;SDS011;17764;47.152;9.828;2023-02-28T17:04:48;13.87;;;10.33;;
31114;SDS011;17764;47.152;9.828;2023-02-28T17:07:14;11.97;;;9.83;;
31114;SDS011;17764;47.152;9.828;2023-02-28T17:09:42;11.43;;;9.67;;
31114;SDS011;17764;47.152;9.828;2023-02-28T17:12:08;13.90;;;9.90;;
31114;SDS011;17764;47.152;9.828;2023-02-28T17:14:34;13.33;;;10.03;;
31114;SDS011;17764;47.152;9.828;2023-02-28T17:17:06;13.87;;;10.87;;
31114;SDS011;17764;47.152;9.828;2023-02-28T17:19:32;11.07;;;9.87;;
31114;SDS011;17764;47.152;9.828;2023-02-28T17:22:00;10.63;;;9.50;;
31114;SDS011;17764;47.152;9.828;2023-02-28T17:24:28;12.90;;;10.10;;
31114;SDS011;17764;47.152;9.828;2023-02-28T17:26:54;12.13;;;10.53;;